Time;durP1;ratioP1;P1;durP2;ratioP2;P2;SDS_P1;SDS_P2;PMS_P1;PMS_P2;Temp;Humidity;BMP_temperature;BMP_pressure;BME280_temperature;BME280_humidity;BME280_pressure;Samples;Min_cycle;Max_cycle;Signal;HPM_P1;HPM_P2
2021/01/27 00:00:27;;;;;;;6.43;3.00;;;0.70;99.90;;;;;;5015740;28;20245;-74
2021/01/27 00:02:53;;;;;;;3.83;2.83;;;0.60;99.90;;;;;;5014551;28;20182;-73
2021/01/27 00:05:24;;;;;;;4.17;2.50;;;0.60;99.90;;;;;;5014119;28;20293;-74
2021/01/27 00:07:50;;;;;;;2.97;2.67;;;0.60;99.90;;;;;;5014313;28;20190;-74
2021/01/27 00:10:16;;;;;;;8.80;3.00;;;0.50;99.90;;;;;;5015810;28;20183;-74
2021/01/27 00:12:42;;;;;;;3.93;2.60;;;0.60;99.90;;;;;;5014382;28;20557;-74
2021/01/27 00:15:10;;;;;;;2.37;2.17;;;0.50;99.90;;;;;;5014137;28;20207;-74
2021/01/27 00:17:37;;;;;;;3.87;2.77;;;0.50;99.90;;;;;;5015749;28;20187;-74
2021/01/27 00:20:04;;;;;;;3.57;2.97;;;0.40;99.90;;;;;;5016519;28;20740;-74
2021/01/27 00:22:30;;;;;;;2.67;2.30;;;0.30;99.90;;;;;;5013984;28;20183;-73
2021/01/27 00:24:56;;;;;;;4.03;2.67;;;0.30;99.90;;;;;;5014010;28;20692;-74
2021/01/27 00:27:22;;;;;;;4.17;2.37;;;0.30;99.90;;;;;;5015552;28;20203;-74
2021/01/27 00:29:47;;;;;;;4.77;2.30;;;0.20;99.90;;;;;;5013975;28;20605;-74
2021/01/27 00:32:13;;;;;;;3.10;2.30;;;0.20;99.90;;;;;;5015127;28;20236;-74
2021/01/27 00:34:38;;;;;;;3.17;1.90;;;0.20;99.90;;;;;;5015075;28;20191;-74
2021/01/27 00:37:04;;;;;;;2.83;2.17;;;0.10;99.90;;;;;;5015213;28;20277;-74
2021/01/27 00:39:30;;;;;;;3.50;2.40;;;0.00;99.90;;;;;;5015203;28;20207;-74
2021/01/27 00:41:56;;;;;;;3.10;2.47;;;0.00;99.90;;;;;;5013695;28;20190;-73
2021/01/27 00:44:21;;;;;;;5.50;3.40;;;0.00;99.90;;;;;;5014927;28;20182;-74
2021/01/27 00:46:48;;;;;;;3.70;2.93;;;0.00;99.90;;;;;;5015058;28;20199;-74
2021/01/27 00:49:14;;;;;;;2.80;2.50;;;0.00;99.90;;;;;;5016013;28;20229;-74
2021/01/27 00:51:40;;;;;;;2.97;2.03;;;0.00;99.90;;;;;;5025145;28;20191;-74
2021/01/27 00:54:05;;;;;;;3.10;2.63;;;0.00;99.90;;;;;;5014834;28;20711;-73
2021/01/27 00:56:31;;;;;;;4.73;2.50;;;0.00;99.90;;;;;;5014963;28;20207;-73
2021/01/27 00:58:57;;;;;;;3.03;2.33;;;0.10;99.90;;;;;;5014586;28;20977;-74
2021/01/27 01:01:23;;;;;;;4.43;2.67;;;0.10;99.90;;;;;;5013376;28;20182;-74
2021/01/27 01:03:49;;;;;;;2.87;2.57;;;0.10;99.90;;;;;;5014895;28;20560;-73
2021/01/27 01:06:14;;;;;;;3.33;2.90;;;0.20;99.90;;;;;;5014337;28;20207;-73
2021/01/27 01:08:40;;;;;;;4.83;3.17;;;0.20;99.90;;;;;;5014300;28;20198;-73
2021/01/27 01:11:06;;;;;;;3.97;2.83;;;0.20;99.90;;;;;;5014765;28;20175;-74
2021/01/27 01:13:32;;;;;;;4.97;2.80;;;0.20;99.90;;;;;;5014706;28;20187;-74
2021/01/27 01:15:58;;;;;;;3.03;2.60;;;0.10;99.90;;;;;;5014356;28;20195;-73
2021/01/27 01:18:24;;;;;;;3.77;2.70;;;0.00;99.90;;;;;;5014307;28;20202;-73
2021/01/27 01:20:51;;;;;;;3.63;2.30;;;0.00;99.90;;;;;;5014493;28;20203;-73
2021/01/27 01:23:19;;;;;;;3.57;2.50;;;-0.10;99.90;;;;;;5014253;28;20558;-73
2021/01/27 01:25:46;;;;;;;3.67;2.20;;;-0.20;99.90;;;;;;5014094;28;20788;-73
2021/01/27 01:28:12;;;;;;;2.80;2.20;;;-0.20;99.90;;;;;;5014184;28;20634;-73
2021/01/27 01:30:40;;;;;;;3.77;2.53;;;-0.30;99.90;;;;;;5014077;28;20186;-73
2021/01/27 01:33:22;;;;;;;4.13;3.33;;;-0.30;99.90;;;;;;5014060;28;20601;-75
2021/01/27 01:35:48;;;;;;;6.47;3.60;;;-0.40;99.90;;;;;;5013912;28;20946;-75
2021/01/27 01:38:15;;;;;;;16.93;9.03;;;-0.40;99.90;;;;;;5013983;28;20186;-75
2021/01/27 01:40:48;;;;;;;6.63;3.47;;;-0.50;99.90;;;;;;5014105;28;20579;-74
2021/01/27 01:43:24;;;;;;;11.73;6.10;;;-0.40;99.90;;;;;;5011901;28;20591;-74
2021/01/27 01:45:56;;;;;;;5.33;3.77;;;-0.40;99.90;;;;;;5013551;28;20282;-75
2021/01/27 01:48:37;;;;;;;9.20;5.03;;;-0.40;99.90;;;;;;5014080;28;20175;-74
2021/01/27 01:51:15;;;;;;;3.20;2.47;;;-0.30;99.90;;;;;;5013977;28;20589;-75
2021/01/27 01:53:41;;;;;;;4.77;2.50;;;-0.30;99.90;;;;;;5013654;28;20183;-74
2021/01/27 01:56:13;;;;;;;6.13;2.33;;;-0.30;99.90;;;;;;5013767;28;20199;-74
2021/01/27 01:58:40;;;;;;;3.90;2.17;;;-0.40;99.90;;;;;;5012313;28;20328;-74
2021/01/27 02:01:06;;;;;;;3.10;2.23;;;-0.40;99.90;;;;;;5012339;28;20186;-75
2021/01/27 02:03:34;;;;;;;4.67;2.43;;;-0.40;99.90;;;;;;5012156;28;20182;-74
2021/01/27 02:06:02;;;;;;;4.10;2.60;;;-0.30;99.90;;;;;;5013310;28;20585;-75
2021/01/27 02:08:30;;;;;;;3.33;2.93;;;-0.20;99.90;;;;;;5013490;28;20210;-74
2021/01/27 02:10:56;;;;;;;3.43;3.00;;;-0.20;99.90;;;;;;5013437;28;20178;-74
2021/01/27 02:13:25;;;;;;;3.83;2.67;;;-0.10;99.90;;;;;;5015750;28;20186;-74
2021/01/27 02:16:15;;;;;;;5.50;3.17;;;-0.10;99.90;;;;;;5013267;28;20203;-74
2021/01/27 02:19:07;;;;;;;9.43;3.90;;;-0.10;99.90;;;;;;5013247;28;20650;-74
2021/01/27 02:21:51;;;;;;;4.33;3.30;;;-0.10;99.90;;;;;;5012527;28;20261;-75
2021/01/27 02:24:50;;;;;;;2.27;1.93;;;-0.20;99.90;;;;;;5011799;28;20174;-75
2021/01/27 02:27:34;;;;;;;4.57;2.20;;;-0.30;99.90;;;;;;5013073;28;20170;-75
2021/01/27 02:30:40;;;;;;;3.73;2.10;;;-0.30;99.90;;;;;;5013117;28;20210;-75
2021/01/27 02:33:45;;;;;;;5.07;2.10;;;-0.50;99.90;;;;;;5013138;28;20172;-74
2021/01/27 02:36:20;;;;;;;4.07;2.27;;;-0.60;99.90;;;;;;5013215;28;20206;-74
2021/01/27 02:39:01;;;;;;;2.00;1.80;;;-0.60;99.90;;;;;;5012959;28;20677;-75
2021/01/27 02:41:46;;;;;;;4.20;2.27;;;-0.60;99.90;;;;;;5012779;28;20229;-75
2021/01/27 02:44:18;;;;;;;2.63;2.20;;;-0.60;99.90;;;;;;5012720;28;20193;-75
2021/01/27 02:46:57;;;;;;;2.23;1.83;;;-0.60;99.90;;;;;;5012678;28;20665;-74
2021/01/27 02:49:58;;;;;;;2.07;1.70;;;-0.60;99.90;;;;;;5012818;28;20269;-74
2021/01/27 02:52:32;;;;;;;3.90;2.73;;;-0.50;99.90;;;;;;5012243;28;20187;-74
2021/01/27 02:55:11;;;;;;;4.37;3.83;;;-0.60;99.90;;;;;;5015125;28;20257;-74
2021/01/27 02:57:59;;;;;;;4.40;3.60;;;-0.50;99.90;;;;;;5011329;28;20634;-75
2021/01/27 03:00:38;;;;;;;4.10;3.47;;;-0.60;99.90;;;;;;5012674;28;20214;-74
2021/01/27 03:03:19;;;;;;;6.17;2.90;;;-0.60;99.90;;;;;;5012600;28;20281;-74
2021/01/27 03:06:12;;;;;;;3.73;3.10;;;-0.60;99.90;;;;;;5012428;28;20701;-75
2021/01/27 03:08:45;;;;;;;7.07;3.40;;;-0.60;99.90;;;;;;5010252;28;20187;-74
2021/01/27 03:11:27;;;;;;;5.47;3.97;;;-0.60;99.90;;;;;;5012458;28;20173;-75
2021/01/27 03:13:54;;;;;;;4.77;3.63;;;-0.60;99.90;;;;;;5012486;28;20214;-74
2021/01/27 03:16:38;;;;;;;7.17;3.67;;;-0.50;99.90;;;;;;5012682;28;20273;-75
2021/01/27 03:19:19;;;;;;;5.40;3.73;;;-0.60;99.90;;;;;;5012345;28;20189;-75
2021/01/27 03:22:14;;;;;;;5.67;4.27;;;-0.60;99.90;;;;;;5004730;28;20205;-75
2021/01/27 03:24:49;;;;;;;4.97;4.47;;;-0.60;99.90;;;;;;4998107;28;20219;-74
2021/01/27 03:27:32;;;;;;;3.83;3.53;;;-0.60;99.90;;;;;;5010359;28;20209;-74
2021/01/27 03:29:59;;;;;;;5.00;3.57;;;-0.60;99.90;;;;;;5010222;28;20187;-74
2021/01/27 03:32:42;;;;;;;6.80;3.40;;;-0.70;99.90;;;;;;5013777;28;20243;-74
2021/01/27 03:35:23;;;;;;;5.60;3.77;;;-0.80;99.90;;;;;;5016268;28;20265;-74
2021/01/27 03:37:58;;;;;;;4.33;3.90;;;-0.80;99.90;;;;;;5014931;28;20190;-74
2021/01/27 03:40:25;;;;;;;4.97;4.20;;;-0.80;99.90;;;;;;5015515;28;20684;-74
2021/01/27 03:43:15;;;;;;;6.07;4.53;;;-0.70;99.90;;;;;;5016027;28;20712;-73
2021/01/27 03:45:48;;;;;;;5.57;4.97;;;-0.70;99.90;;;;;;5015918;28;20248;-74
2021/01/27 03:48:39;;;;;;;8.20;4.93;;;-0.70;99.90;;;;;;5014821;28;20207;-74
2021/01/27 03:51:05;;;;;;;6.17;4.80;;;-0.70;99.90;;;;;;5015999;28;20680;-74
2021/01/27 03:53:33;;;;;;;5.43;4.70;;;-0.70;99.90;;;;;;5015964;28;20187;-75
2021/01/27 03:56:24;;;;;;;5.67;4.93;;;-0.70;99.90;;;;;;5015743;28;20249;-74
2021/01/27 03:58:50;;;;;;;7.87;4.53;;;-0.70;99.90;;;;;;5015696;28;20269;-74
2021/01/27 04:01:22;;;;;;;4.90;4.40;;;-0.70;99.90;;;;;;5015923;28;20258;-74
2021/01/27 04:03:51;;;;;;;5.50;4.50;;;-0.70;99.90;;;;;;5015576;28;20528;-73
2021/01/27 04:06:17;;;;;;;8.63;4.30;;;-0.70;99.90;;;;;;5015496;28;20234;-74
2021/01/27 04:08:43;;;;;;;4.77;4.27;;;-0.70;99.90;;;;;;5018136;28;20210;-74
2021/01/27 04:11:09;;;;;;;7.87;4.33;;;-0.70;99.90;;;;;;5014296;28;20209;-74
2021/01/27 04:13:35;;;;;;;4.80;4.20;;;-0.70;99.90;;;;;;5015778;28;20183;-74
2021/01/27 04:16:01;;;;;;;4.60;4.10;;;-0.70;99.90;;;;;;5015454;28;20195;-74
2021/01/27 04:18:27;;;;;;;5.30;4.47;;;-0.70;99.90;;;;;;5014137;28;20289;-74
2021/01/27 04:20:53;;;;;;;4.93;4.43;;;-0.70;99.90;;;;;;5015462;28;20317;-74
2021/01/27 04:23:19;;;;;;;4.60;4.20;;;-0.70;99.90;;;;;;5015483;28;20683;-74
2021/01/27 04:25:45;;;;;;;4.50;4.10;;;-0.70;99.90;;;;;;5015291;28;20214;-74
2021/01/27 04:28:12;;;;;;;5.63;4.10;;;-0.70;99.90;;;;;;5015268;28;20186;-74
2021/01/27 04:30:38;;;;;;;6.33;4.87;;;-0.70;99.90;;;;;;5015203;28;20182;-74
2021/01/27 04:33:07;;;;;;;6.70;4.87;;;-0.70;99.90;;;;;;5015309;28;20187;-74
2021/01/27 04:35:34;;;;;;;5.00;4.50;;;-0.80;99.90;;;;;;5014953;28;20209;-74
2021/01/27 04:38:00;;;;;;;7.03;4.20;;;-0.90;99.90;;;;;;5015421;28;20190;-74
2021/01/27 04:40:29;;;;;;;6.97;5.03;;;-1.00;99.90;;;;;;5015046;28;20206;-74
2021/01/27 04:42:55;;;;;;;5.10;4.60;;;-1.10;99.90;;;;;;5014424;28;20177;-74
2021/01/27 04:45:21;;;;;;;5.87;4.53;;;-1.10;99.90;;;;;;5014509;28;20676;-74
2021/01/27 04:48:00;;;;;;;6.00;4.80;;;-1.10;99.90;;;;;;5013619;28;20244;-74
2021/01/27 04:50:45;;;;;;;8.33;4.77;;;-1.10;99.90;;;;;;5014530;28;20545;-75
2021/01/27 04:53:19;;;;;;;7.03;4.63;;;-1.10;99.90;;;;;;5014872;28;20166;-74
2021/01/27 04:55:59;;;;;;;6.07;4.27;;;-1.10;99.90;;;;;;5014742;28;20198;-74
2021/01/27 04:58:34;;;;;;;7.13;5.53;;;-1.10;99.90;;;;;;5014701;28;20177;-74
2021/01/27 05:01:34;;;;;;;5.80;5.03;;;-1.10;99.90;;;;;;5010937;28;20202;-74
2021/01/27 05:04:18;;;;;;;6.57;5.00;;;-1.10;99.90;;;;;;5002747;28;20190;-74
2021/01/27 05:06:48;;;;;;;6.73;5.17;;;-1.10;99.90;;;;;;5004389;28;20277;-74
2021/01/27 05:09:18;;;;;;;10.27;5.70;;;-1.10;99.90;;;;;;5014000;28;20179;-74
2021/01/27 05:11:46;;;;;;;6.83;5.03;;;-1.10;99.90;;;;;;5012993;28;20196;-74
2021/01/27 05:14:16;;;;;;;7.07;5.33;;;-1.20;99.90;;;;;;5014773;28;20210;-74
2021/01/27 05:16:45;;;;;;;5.30;4.20;;;-1.10;99.90;;;;;;5013725;28;20213;-74
2021/01/27 05:19:11;;;;;;;3.93;3.50;;;-1.10;99.90;;;;;;5014188;28;20207;-74
2021/01/27 05:21:45;;;;;;;4.47;3.87;;;-1.00;99.90;;;;;;5013842;28;20178;-73
2021/01/27 05:24:11;;;;;;;4.73;3.40;;;-0.90;99.90;;;;;;5014134;28;20183;-74
2021/01/27 05:27:04;;;;;;;4.77;3.83;;;-0.90;99.90;;;;;;5013938;28;20201;-73
2021/01/27 05:30:02;;;;;;;6.27;3.73;;;-0.90;99.90;;;;;;5012703;28;20183;-74
2021/01/27 05:32:27;;;;;;;3.57;3.27;;;-0.80;99.90;;;;;;5005677;28;20652;-74
2021/01/27 05:34:56;;;;;;;4.17;3.63;;;-0.70;99.90;;;;;;5014314;28;21891;-73
2021/01/27 05:37:29;;;;;;;4.17;3.53;;;-0.70;99.90;;;;;;5013938;28;20980;-73
2021/01/27 05:40:03;;;;;;;4.20;3.67;;;-0.70;99.90;;;;;;5014006;28;20207;-74
2021/01/27 05:42:33;;;;;;;4.10;3.70;;;-0.70;99.90;;;;;;5013618;28;20703;-74
2021/01/27 05:45:37;;;;;;;3.70;3.30;;;-0.60;99.90;;;;;;5013697;28;20187;-74
2021/01/27 05:48:29;;;;;;;3.87;3.33;;;-0.60;99.90;;;;;;5013681;28;20175;-74
2021/01/27 05:51:15;;;;;;;4.53;3.30;;;-0.60;99.90;;;;;;5013180;28;20201;-73
2021/01/27 05:53:41;;;;;;;5.23;3.07;;;-0.60;99.90;;;;;;5013816;28;20220;-74
2021/01/27 05:56:17;;;;;;;3.57;2.60;;;-0.60;99.90;;;;;;5013504;28;20206;-73
2021/01/27 05:59:06;;;;;;;3.30;3.00;;;-0.60;99.90;;;;;;5011529;28;20191;-74
2021/01/27 06:01:44;;;;;;;3.83;3.23;;;-0.60;99.90;;;;;;5013424;28;20211;-74
2021/01/27 06:04:12;;;;;;;5.53;3.20;;;-0.60;99.90;;;;;;5013908;28;20225;-74
2021/01/27 06:06:47;;;;;;;3.60;3.03;;;-0.60;99.90;;;;;;5013230;28;20250;-74
2021/01/27 06:09:14;;;;;;;3.43;2.63;;;-0.60;99.90;;;;;;5013467;28;20657;-74
2021/01/27 06:11:42;;;;;;;3.73;3.17;;;-0.50;99.90;;;;;;5014221;28;20194;-74
2021/01/27 06:14:18;;;;;;;6.00;3.30;;;-0.50;99.90;;;;;;5023933;28;20175;-74
2021/01/27 06:16:46;;;;;;;9.40;4.37;;;-0.50;99.90;;;;;;5013168;28;20198;-74
2021/01/27 06:19:25;;;;;;;5.17;3.87;;;-0.50;99.90;;;;;;5011908;28;20296;-74
2021/01/27 06:22:16;;;;;;;3.70;3.13;;;-0.40;99.90;;;;;;5012712;28;20179;-74
2021/01/27 06:24:54;;;;;;;2.90;2.60;;;-0.50;99.90;;;;;;5013425;28;20185;-73
2021/01/27 06:27:32;;;;;;;2.97;2.67;;;-0.50;99.90;;;;;;5013063;28;20178;-74
2021/01/27 06:30:28;;;;;;;4.03;2.87;;;-0.50;99.90;;;;;;5013006;28;20237;-74
2021/01/27 06:33:13;;;;;;;3.40;3.07;;;-0.50;99.90;;;;;;5013389;28;20205;-73
2021/01/27 06:35:53;;;;;;;4.17;3.17;;;-0.50;99.90;;;;;;5012919;28;20616;-74
2021/01/27 06:38:55;;;;;;;5.10;3.33;;;-0.50;99.90;;;;;;5002805;28;20176;-73
2021/01/27 06:41:28;;;;;;;4.00;3.47;;;-0.50;99.90;;;;;;4989527;28;20788;-74
2021/01/27 06:44:20;;;;;;;5.73;3.50;;;-0.50;99.90;;;;;;5013141;28;20179;-74
2021/01/27 06:46:46;;;;;;;4.70;3.60;;;-0.50;99.90;;;;;;4997871;28;20214;-73
2021/01/27 06:49:38;;;;;;;5.40;4.43;;;-0.50;99.90;;;;;;5011477;28;20175;-74
2021/01/27 06:52:17;;;;;;;4.30;3.40;;;-0.50;99.90;;;;;;5012845;28;20210;-74
2021/01/27 06:55:00;;;;;;;2.93;2.63;;;-0.50;99.90;;;;;;5012719;28;20178;-73
2021/01/27 06:58:12;;;;;;;4.07;3.50;;;-0.60;99.90;;;;;;5012891;28;20193;-74
2021/01/27 07:01:15;;;;;;;4.20;3.03;;;-0.60;99.90;;;;;;5012595;28;20202;-74
2021/01/27 07:04:00;;;;;;;3.37;3.07;;;-0.60;99.90;;;;;;5012531;28;20171;-73
2021/01/27 07:07:01;;;;;;;7.53;3.30;;;-0.50;99.90;;;;;;5024992;28;20209;-73
2021/01/27 07:09:45;;;;;;;4.17;3.40;;;-0.50;99.90;;;;;;5003241;28;20210;-74
2021/01/27 07:12:27;;;;;;;4.30;3.27;;;-0.50;99.90;;;;;;5012504;28;20188;-74
2021/01/27 07:15:21;;;;;;;4.70;3.13;;;-0.50;99.90;;;;;;5012370;28;20277;-74
2021/01/27 07:17:57;;;;;;;3.20;2.90;;;-0.50;99.90;;;;;;5011183;28;20223;-74
2021/01/27 07:20:41;;;;;;;3.30;3.00;;;-0.50;99.90;;;;;;5012323;28;20696;-74
2021/01/27 07:23:17;;;;;;;3.30;3.00;;;-0.50;99.90;;;;;;5012531;28;20167;-73
2021/01/27 07:26:11;;;;;;;3.77;2.73;;;-0.50;99.90;;;;;;5012505;28;20201;-74
2021/01/27 07:29:02;;;;;;;3.10;2.80;;;-0.50;99.90;;;;;;5011423;28;20171;-74
2021/01/27 07:31:31;;;;;;;3.70;3.20;;;-0.40;99.90;;;;;;5011432;28;20167;-74
2021/01/27 07:34:21;;;;;;;4.43;2.97;;;-0.50;99.90;;;;;;5012547;28;20174;-74
2021/01/27 07:37:09;;;;;;;3.80;3.20;;;-0.40;99.90;;;;;;5012089;28;20197;-73
2021/01/27 07:39:59;;;;;;;4.30;3.13;;;-0.40;99.90;;;;;;5012050;28;20209;-74
2021/01/27 07:42:41;;;;;;;3.43;2.97;;;-0.40;99.90;;;;;;5012499;28;20249;-74
2021/01/27 07:45:15;;;;;;;6.83;3.80;;;-0.40;99.90;;;;;;5010778;28;20201;-74
2021/01/27 07:47:56;;;;;;;3.83;3.30;;;-0.40;99.90;;;;;;5012143;28;20341;-74
2021/01/27 07:50:23;;;;;;;4.50;3.37;;;-0.40;99.90;;;;;;5010777;28;20179;-74
2021/01/27 07:53:11;;;;;;;3.97;3.57;;;-0.40;99.90;;;;;;5012243;28;20186;-74
2021/01/27 07:56:07;;;;;;;5.87;3.60;;;-0.40;99.90;;;;;;5012018;28;20547;-74
2021/01/27 07:58:41;;;;;;;4.33;3.93;;;-0.40;99.90;;;;;;5011938;28;20191;-74
2021/01/27 08:01:39;;;;;;;4.67;4.20;;;-0.40;99.90;;;;;;5011994;28;20199;-74
2021/01/27 08:04:09;;;;;;;5.33;4.20;;;-0.40;99.90;;;;;;5007612;28;20657;-74
2021/01/27 08:06:46;;;;;;;5.60;3.97;;;-0.30;99.90;;;;;;5011833;28;20211;-74
2021/01/27 08:09:21;;;;;;;4.73;3.90;;;-0.40;99.90;;;;;;5012068;28;20539;-74
2021/01/27 08:11:47;;;;;;;7.93;4.23;;;-0.30;99.90;;;;;;5010943;28;20175;-74
2021/01/27 08:14:14;;;;;;;4.43;4.03;;;-0.30;99.90;;;;;;5011737;28;20190;-74
2021/01/27 08:16:45;;;;;;;7.97;4.03;;;-0.30;99.90;;;;;;5013158;28;20678;-73
2021/01/27 08:19:11;;;;;;;7.87;3.60;;;-0.30;99.90;;;;;;5006779;28;20175;-74
2021/01/27 08:21:46;;;;;;;5.97;4.10;;;-0.20;99.90;;;;;;5014206;28;20683;-74
2021/01/27 08:24:36;;;;;;;4.30;3.90;;;-0.30;99.90;;;;;;5015417;28;20652;-74
2021/01/27 08:27:17;;;;;;;7.50;3.80;;;-0.30;99.90;;;;;;5015720;28;20543;-74
2021/01/27 08:29:55;;;;;;;5.10;4.20;;;-0.30;99.90;;;;;;5015373;28;20189;-74
2021/01/27 08:32:37;;;;;;;5.03;4.20;;;-0.30;99.90;;;;;;5014002;28;20237;-74
2021/01/27 08:35:08;;;;;;;5.37;4.07;;;-0.30;99.90;;;;;;5015508;28;20209;-74
2021/01/27 08:37:37;;;;;;;5.07;4.20;;;-0.30;99.90;;;;;;5013930;28;20699;-74
2021/01/27 08:40:02;;;;;;;4.20;3.80;;;-0.20;99.90;;;;;;5015067;28;20682;-74
2021/01/27 08:42:39;;;;;;;4.47;4.00;;;-0.20;99.90;;;;;;5015359;28;20198;-74
2021/01/27 08:45:22;;;;;;;5.87;3.97;;;-0.30;99.90;;;;;;5014824;28;20230;-74
2021/01/27 08:47:51;;;;;;;4.70;4.13;;;-0.20;99.90;;;;;;5014999;28;20616;-74
2021/01/27 08:50:48;;;;;;;5.13;3.63;;;-0.20;99.90;;;;;;5014954;28;20672;-74
2021/01/27 08:53:20;;;;;;;6.73;4.47;;;-0.20;99.90;;;;;;5015005;28;20190;-74
2021/01/27 08:55:46;;;;;;;4.13;3.73;;;-0.20;99.90;;;;;;5015111;28;20289;-74
2021/01/27 08:58:26;;;;;;;6.67;4.10;;;-0.20;99.90;;;;;;5014676;28;20634;-74
2021/01/27 09:01:00;;;;;;;5.20;3.47;;;-0.20;99.90;;;;;;5015013;28;20202;-74
2021/01/27 09:03:38;;;;;;;4.47;4.07;;;-0.10;99.90;;;;;;5014670;28;20289;-74
2021/01/27 09:06:05;;;;;;;4.40;3.83;;;-0.10;99.90;;;;;;5014285;28;20256;-73
2021/01/27 09:08:33;;;;;;;5.27;4.47;;;-0.20;99.90;;;;;;5014611;28;20201;-74
2021/01/27 09:11:07;;;;;;;4.60;4.17;;;-0.20;99.90;;;;;;5014746;28;20187;-74
2021/01/27 09:13:41;;;;;;;6.57;4.07;;;-0.20;99.90;;;;;;5014465;28;20183;-74
2021/01/27 09:16:08;;;;;;;5.70;4.10;;;-0.20;99.90;;;;;;5016857;28;20199;-74
2021/01/27 09:18:35;;;;;;;4.90;4.40;;;-0.20;99.90;;;;;;5014479;28;20181;-74
2021/01/27 09:21:16;;;;;;;5.20;4.70;;;-0.20;99.90;;;;;;5014279;28;20210;-74
2021/01/27 09:23:44;;;;;;;4.83;4.20;;;-0.20;99.90;;;;;;5014389;28;20324;-74
2021/01/27 09:26:22;;;;;;;6.73;4.50;;;-0.30;99.90;;;;;;5014269;28;20568;-75
2021/01/27 09:28:49;;;;;;;4.77;4.37;;;-0.30;99.90;;;;;;5014179;28;20261;-74
2021/01/27 09:31:23;;;;;;;5.97;4.93;;;-0.40;99.90;;;;;;5013935;28;20179;-74
2021/01/27 09:33:50;;;;;;;5.43;4.97;;;-0.40;99.90;;;;;;5014140;28;20185;-74
2021/01/27 09:36:23;;;;;;;7.20;5.57;;;-0.40;99.90;;;;;;5014012;28;20285;-74
2021/01/27 09:38:51;;;;;;;10.13;8.23;;;-0.40;99.90;;;;;;5012807;28;20198;-74
2021/01/27 09:41:23;;;;;;;9.87;7.20;;;-0.40;99.90;;;;;;5014170;28;20206;-75
2021/01/27 09:43:49;;;;;;;8.97;8.07;;;-0.40;99.90;;;;;;5012755;28;20233;-75
2021/01/27 09:46:33;;;;;;;8.53;5.13;;;-0.40;99.90;;;;;;5012488;28;20241;-74
2021/01/27 09:49:06;;;;;;;10.43;5.17;;;-0.40;99.90;;;;;;5013944;28;20723;-74
2021/01/27 09:51:33;;;;;;;5.77;5.23;;;-0.40;99.90;;;;;;5013838;28;20178;-75
2021/01/27 09:54:01;;;;;;;8.43;5.40;;;-0.40;99.90;;;;;;5013832;28;20194;-75
2021/01/27 09:56:28;;;;;;;6.23;5.73;;;-0.40;99.90;;;;;;5012376;28;20696;-74
2021/01/27 09:58:56;;;;;;;5.77;5.17;;;-0.30;99.90;;;;;;5012379;28;20283;-75
2021/01/27 10:01:24;;;;;;;6.43;5.90;;;-0.30;99.90;;;;;;5013658;28;20238;-75
2021/01/27 10:03:54;;;;;;;5.77;5.27;;;-0.30;99.90;;;;;;5013571;28;20198;-75
2021/01/27 10:06:47;;;;;;;7.40;6.57;;;-0.30;99.90;;;;;;5013332;28;20211;-75
2021/01/27 10:09:38;;;;;;;7.13;5.70;;;-0.30;99.90;;;;;;5023641;28;20203;-74
2021/01/27 10:12:10;;;;;;;5.97;5.03;;;-0.30;99.90;;;;;;5013346;28;20174;-75
2021/01/27 10:14:39;;;;;;;7.07;5.57;;;-0.30;99.90;;;;;;5013658;28;20190;-75
2021/01/27 10:17:08;;;;;;;7.87;6.20;;;-0.30;99.90;;;;;;5013398;28;20637;-75
2021/01/27 10:19:50;;;;;;;7.37;6.10;;;-0.30;99.90;;;;;;5013378;28;20210;-75
2021/01/27 10:22:28;;;;;;;5.93;5.43;;;-0.30;99.90;;;;;;5013650;28;20269;-75
2021/01/27 10:24:59;;;;;;;6.57;5.67;;;-0.30;99.90;;;;;;5013319;28;20637;-75
2021/01/27 10:27:40;;;;;;;6.57;5.87;;;-0.30;99.90;;;;;;5013204;28;20528;-74
2021/01/27 10:30:15;;;;;;;10.07;6.47;;;-0.30;99.90;;;;;;5013343;28;20207;-75
2021/01/27 10:32:43;;;;;;;7.47;6.30;;;-0.30;99.90;;;;;;5011839;28;20190;-75
2021/01/27 10:35:26;;;;;;;6.40;5.80;;;-0.20;99.90;;;;;;5013138;28;20213;-74
2021/01/27 10:38:14;;;;;;;7.93;5.73;;;-0.20;99.90;;;;;;5013051;28;20552;-75
2021/01/27 10:41:00;;;;;;;9.17;6.27;;;-0.20;99.90;;;;;;5013047;28;20210;-75
2021/01/27 10:43:28;;;;;;;7.30;6.27;;;-0.20;99.90;;;;;;5012851;28;20182;-74
2021/01/27 10:45:55;;;;;;;6.37;5.77;;;-0.20;99.90;;;;;;5012624;28;20191;-74
2021/01/27 10:48:26;;;;;;;6.80;6.20;;;-0.30;99.90;;;;;;5013202;28;20179;-74
2021/01/27 10:51:08;;;;;;;7.43;6.43;;;-0.20;99.90;;;;;;5012681;28;20223;-74
2021/01/27 10:53:42;;;;;;;7.00;6.30;;;-0.20;99.90;;;;;;5012692;28;20193;-75
2021/01/27 10:56:10;;;;;;;7.07;6.43;;;-0.30;99.90;;;;;;5012797;28;20214;-74
2021/01/27 10:58:36;;;;;;;7.80;7.03;;;-0.30;99.90;;;;;;5011127;28;20301;-74
2021/01/27 11:01:02;;;;;;;8.40;7.30;;;-0.30;99.90;;;;;;5012641;28;20282;-74
2021/01/27 11:03:28;;;;;;;7.73;6.93;;;-0.20;99.90;;;;;;5012812;28;20269;-74
2021/01/27 11:05:55;;;;;;;8.10;7.17;;;-0.30;99.90;;;;;;5011166;28;20618;-74
2021/01/27 11:08:27;;;;;;;9.13;7.23;;;-0.30;99.90;;;;;;5012793;28;20201;-74
2021/01/27 11:10:54;;;;;;;7.60;6.90;;;-0.30;99.90;;;;;;5005779;28;20200;-75
2021/01/27 11:13:20;;;;;;;8.80;6.90;;;-0.20;99.90;;;;;;5001413;28;20355;-73
2021/01/27 11:15:46;;;;;;;9.60;8.03;;;-0.20;99.90;;;;;;5009469;28;20677;-74
2021/01/27 11:18:12;;;;;;;9.17;7.97;;;-0.10;99.90;;;;;;5010152;28;20198;-75
2021/01/27 11:20:38;;;;;;;8.47;7.67;;;-0.10;99.90;;;;;;5008868;28;20258;-75
2021/01/27 11:23:04;;;;;;;17.73;11.30;;;0.00;99.90;;;;;;5007865;28;20227;-75
2021/01/27 11:25:29;;;;;;;10.70;7.80;;;0.00;99.90;;;;;;5005197;28;20215;-74
2021/01/27 11:27:56;;;;;;;15.57;9.27;;;0.00;99.90;;;;;;5009875;28;20252;-74
2021/01/27 11:30:25;;;;;;;7.40;6.70;;;0.00;99.90;;;;;;5008693;28;20841;-75
2021/01/27 11:32:52;;;;;;;7.00;6.30;;;0.10;99.90;;;;;;5006161;28;20221;-74
2021/01/27 11:35:20;;;;;;;7.80;6.63;;;0.10;99.90;;;;;;5005633;28;20229;-74
2021/01/27 11:37:47;;;;;;;7.50;6.80;;;-0.10;99.90;;;;;;5006732;28;20662;-75
2021/01/27 11:40:15;;;;;;;11.07;6.47;;;0.00;99.90;;;;;;5006555;28;20245;-75
2021/01/27 11:42:41;;;;;;;8.23;6.87;;;-0.20;99.90;;;;;;5007377;28;20689;-74
2021/01/27 11:45:08;;;;;;;9.80;8.27;;;-0.20;99.90;;;;;;5000633;28;20233;-76
2021/01/27 11:47:35;;;;;;;10.83;8.80;;;-0.20;99.90;;;;;;4983535;28;20197;-75
2021/01/27 11:50:02;;;;;;;10.40;8.37;;;-0.10;99.90;;;;;;5003812;28;20190;-75
2021/01/27 11:52:27;;;;;;;11.77;8.43;;;-0.10;99.90;;;;;;5019177;28;20557;-74
2021/01/27 11:54:53;;;;;;;7.80;7.10;;;0.00;99.90;;;;;;5009674;28;20186;-74
2021/01/27 11:57:20;;;;;;;8.00;7.20;;;0.00;99.90;;;;;;5018837;28;20195;-75
2021/01/27 11:59:46;;;;;;;9.93;8.63;;;0.10;99.90;;;;;;5010764;28;20628;-74
2021/01/27 12:02:12;;;;;;;7.53;6.83;;;0.20;99.90;;;;;;5012133;28;20293;-74
2021/01/27 12:04:39;;;;;;;7.23;6.63;;;0.20;99.90;;;;;;5009646;28;20588;-75
2021/01/27 12:07:06;;;;;;;7.57;6.87;;;0.10;99.90;;;;;;5022610;28;20222;-74
2021/01/27 12:09:34;;;;;;;7.63;6.93;;;0.00;99.90;;;;;;5004407;28;20207;-74
2021/01/27 12:12:00;;;;;;;11.30;7.27;;;0.00;99.90;;;;;;5030702;28;20214;-75
2021/01/27 12:14:26;;;;;;;8.23;7.43;;;0.00;99.90;;;;;;5009574;28;20212;-74
2021/01/27 12:16:52;;;;;;;11.70;8.07;;;0.00;99.90;;;;;;5007207;28;20207;-75
2021/01/27 12:19:18;;;;;;;9.10;8.20;;;0.10;99.90;;;;;;5010808;28;20183;-74
2021/01/27 12:21:43;;;;;;;9.47;8.47;;;0.10;99.90;;;;;;5007720;28;20185;-75
2021/01/27 12:24:09;;;;;;;11.60;8.53;;;0.20;99.90;;;;;;5009420;28;20529;-73
2021/01/27 12:26:35;;;;;;;8.40;7.70;;;0.30;99.90;;;;;;5006852;28;20674;-74
2021/01/27 12:29:01;;;;;;;7.63;6.80;;;0.40;99.90;;;;;;5028323;28;20171;-74
2021/01/27 12:31:27;;;;;;;9.77;8.87;;;0.50;99.90;;;;;;5009832;28;20186;-74
2021/01/27 12:33:54;;;;;;;9.20;8.40;;;0.50;99.90;;;;;;5012518;28;20193;-74
2021/01/27 12:36:19;;;;;;;7.53;6.93;;;0.60;99.90;;;;;;4998823;28;20650;-74
2021/01/27 12:38:46;;;;;;;10.80;7.67;;;0.60;99.90;;;;;;5001099;28;20199;-74
2021/01/27 12:41:11;;;;;;;8.73;6.93;;;0.60;99.90;;;;;;5007565;28;20743;-75
2021/01/27 12:43:37;;;;;;;7.67;6.97;;;0.70;99.90;;;;;;5012573;28;20179;-73
2021/01/27 12:46:03;;;;;;;7.13;6.50;;;0.70;99.90;;;;;;5009530;28;20199;-74
2021/01/27 12:48:30;;;;;;;7.30;6.37;;;0.70;99.90;;;;;;5008022;28;20191;-74
2021/01/27 12:51:00;;;;;;;7.50;6.80;;;0.70;99.90;;;;;;5011761;28;20175;-73
2021/01/27 12:53:26;;;;;;;6.43;5.83;;;0.70;99.90;;;;;;5012758;28;20262;-73
2021/01/27 12:55:53;;;;;;;7.30;6.67;;;0.70;99.90;;;;;;5011772;28;20229;-72
2021/01/27 12:58:19;;;;;;;7.07;6.37;;;0.70;99.90;;;;;;5012200;28;20316;-73
2021/01/27 13:00:45;;;;;;;7.50;6.80;;;0.70;99.90;;;;;;5013080;28;20199;-73
2021/01/27 13:03:11;;;;;;;7.67;6.97;;;0.70;99.90;;;;;;5012316;28;20209;-74
2021/01/27 13:05:37;;;;;;;7.53;6.83;;;0.60;99.90;;;;;;5011632;28;20261;-74
2021/01/27 13:08:04;;;;;;;7.70;6.90;;;0.70;99.90;;;;;;5013572;28;20185;-75
2021/01/27 13:10:30;;;;;;;7.70;7.20;;;0.70;99.90;;;;;;5013178;28;20182;-74
2021/01/27 13:12:56;;;;;;;6.57;5.97;;;0.70;99.90;;;;;;5012806;28;20294;-74
2021/01/27 13:15:22;;;;;;;7.50;6.80;;;0.70;99.90;;;;;;5008620;28;20580;-74
2021/01/27 13:17:49;;;;;;;7.07;6.47;;;0.70;99.90;;;;;;5011648;28;20222;-74
2021/01/27 13:20:18;;;;;;;7.07;6.47;;;0.70;99.90;;;;;;5008596;28;20213;-73